Questo sito contribuisce all'audience di Il Post

 
 

Meteo Giornale » Osservazioni meteo Italia » Rieti

ore: 07:50 - Osservazioni Meteo Rieti
Lat. 42° 25' N Lon. 12° 51' E Alt. 389 metri s.l.m.

sereno Europe/Rome

15 °C

Sereno

Temp. 24 Ore

13 °C

30 °C

Nord

3.7 Km/h

Dew point 13 °C

Umidità 87 %

Visibilità  10 Km

Il sole sorge alle ore 06:25

Il sole tramonta alle ore 19:55

Data e Ora Cielo e Fenomeni T °C DP °C Um. % Pres. hPa Vis. km Vento km/h
Oggi h: 07:50 sereno Sereno 15 13 87 1018 10 N 3.7
Oggi h: 06:50 sereno Sereno 13 11 87 1018 10 N 0
Oggi h: 05:50 sereno Sereno 14 12 87 1018 10 N 0
Oggi h: 04:50 sereno Sereno 16 12 77 1018 10 N 3.7
Oggi h: 03:50 sereno Sereno 16 12 77 1018 10 N 0
Oggi h: 02:50 sereno Sereno 15 12 82 1018 10 N 0
Oggi h: 01:50 sereno Sereno 16 12 77 1018 10 N 0
Oggi h: 00:50 sereno Sereno 17 12 72 1018 10 N 3.7
Ieri h: 23:50 sereno Sereno 18 13 72 1018 10 N 5.5
Ieri h: 22:50 sereno Sereno 20 12 59 1018 10 N 5.5
Ieri h: 21:50 sereno Sereno 23 13 53 1018 10 N 3.7
Ieri h: 20:50 sereno Sereno 25 13 47 1017 10 E/SE 18.5
Ieri h: 19:50 sereno Sereno 26 12 41 1017 10 E/SE 20.3
Ieri h: 18:50 sereno Sereno 28 12 37 1016 10 E/SE 22.2
Ieri h: 17:50 sereno Sereno 29 11 32 1016 10 E/SE 18.5
Ieri h: 16:50 sereno Sereno 30 11 30 1017 10 E/SE 16.7
Ieri h: 15:50 sereno Sereno 30 12 33 1017 10 S/SE 14.8
Ieri h: 14:50 sereno Sereno 30 12 33 1017 10 S/SE 11.1
Ieri h: 13:50 sereno Sereno 28 11 34 1018 10 NO 11.1
Ieri h: 12:50 sereno Sereno 27 18 57 1018 10 N 5.5
Ieri h: 11:50 sereno Sereno 26 11 39 1019 10 NO 11.1
Ieri h: 10:50 sereno Sereno 25 12 44 1019 10 N 5.5
Ieri h: 09:50 sereno Sereno 23 12 49 1019 10 N 13
Ieri h: 08:50 sereno Sereno 18 12 67 1019 10 N 5.5